Time;durP1;ratioP1;P1;durP2;ratioP2;P2;SDS_P1;SDS_P2;PMS_P1;PMS_P2;Temp;Humidity;BMP_temperature;BMP_pressure;BME280_temperature;BME280_humidity;BME280_pressure;Samples;Min_cycle;Max_cycle;Signal;HPM_P1;HPM_P2
2022/10/03 00:02:11;;;;;;;2.80;2.50;;;12.50;99.90;;;13.02;100.00;101521.28;4971073;28;21006;-64
2022/10/03 00:05:11;;;;;;;3.53;2.50;;;12.50;99.90;;;13.00;100.00;101534.50;4973453;28;21192;-64
2022/10/03 00:07:55;;;;;;;3.53;3.00;;;12.50;99.90;;;13.00;100.00;101531.88;4974809;28;20625;-64
2022/10/03 00:10:37;;;;;;;3.20;2.90;;;12.50;99.90;;;12.99;100.00;101530.19;4975189;28;20697;-64
2022/10/03 00:13:27;;;;;;;3.10;1.90;;;12.50;99.90;;;12.98;100.00;101530.31;4992205;28;20658;-63
2022/10/03 00:16:02;;;;;;;2.73;2.40;;;12.50;99.90;;;12.97;100.00;101526.84;4989603;28;20736;-63
2022/10/03 00:19:07;;;;;;;2.77;2.50;;;12.50;99.90;;;12.97;100.00;101524.22;4990215;28;20626;-64
2022/10/03 00:21:52;;;;;;;2.33;2.13;;;12.50;99.90;;;12.99;100.00;101530.19;4991850;28;20698;-65
2022/10/03 00:24:51;;;;;;;2.33;2.17;;;12.50;99.90;;;12.98;100.00;101528.53;4992286;28;20697;-64
2022/10/03 00:27:36;;;;;;;2.10;2.00;;;12.50;99.90;;;12.82;100.00;101540.16;4991428;28;20665;-64
2022/10/03 00:30:20;;;;;;;4.07;2.83;;;12.40;99.90;;;12.81;100.00;101535.84;4989931;28;20643;-65
2022/10/03 00:33:02;;;;;;;2.40;2.20;;;12.40;99.90;;;12.66;100.00;101531.63;4973783;28;20658;-67
2022/10/03 00:35:51;;;;;;;2.70;2.30;;;12.40;99.90;;;12.80;100.00;101535.00;4990489;28;20702;-65
2022/10/03 00:38:47;;;;;;;2.90;2.00;;;12.40;99.90;;;12.77;100.00;101539.59;4990544;28;20638;-65
2022/10/03 00:41:37;;;;;;;2.30;2.20;;;12.40;99.90;;;12.86;100.00;101534.56;4970284;28;20639;-66
2022/10/03 00:44:27;;;;;;;1.90;1.80;;;12.40;99.90;;;12.77;100.00;101539.59;4969545;28;20688;-65
2022/10/03 00:46:57;;;;;;;2.17;2.00;;;12.40;99.90;;;12.65;100.00;101543.06;4986525;28;20645;-65
2022/10/03 00:50:29;;;;;;;1.87;1.77;;;12.30;99.90;;;12.58;100.00;101547.84;4990853;28;20624;-66
2022/10/03 00:54:01;;;;;;;2.63;2.30;;;12.30;99.90;;;12.45;100.00;101549.59;4991563;28;21263;-66
2022/10/03 00:57:15;;;;;;;4.77;2.20;;;12.10;99.90;;;12.58;100.00;101552.25;4960018;28;20649;-64
2022/10/03 01:00:05;;;;;;;2.17;1.90;;;12.10;99.90;;;12.51;100.00;101550.97;4976692;28;20630;-64
2022/10/03 01:02:43;;;;;;;4.47;2.73;;;12.10;99.90;;;12.36;100.00;101552.78;4991450;28;20634;-61
2022/10/03 01:05:45;;;;;;;2.23;2.13;;;12.00;99.90;;;12.44;100.00;101555.75;4991645;28;21264;-66
2022/10/03 01:08:25;;;;;;;7.57;2.40;;;12.10;99.90;;;12.38;100.00;101553.53;4991247;28;20675;-65
2022/10/03 01:11:23;;;;;;;2.60;2.27;;;12.00;99.90;;;12.07;100.00;101567.75;4973793;28;20630;-65
2022/10/03 01:13:53;;;;;;;2.87;2.40;;;11.90;99.90;;;12.01;100.00;101567.31;4974445;28;20615;-65
2022/10/03 01:17:12;;;;;;;2.63;2.30;;;11.80;99.90;;;11.92;100.00;101566.09;4991495;28;20634;-64
2022/10/03 01:20:21;;;;;;;2.07;1.90;;;11.70;99.90;;;11.81;100.00;101573.78;4971220;28;20619;-64
2022/10/03 01:23:33;;;;;;;3.30;2.30;;;11.60;99.90;;;11.85;100.00;101570.03;4976205;28;20662;-64
2022/10/03 01:26:39;;;;;;;1.93;1.83;;;11.60;99.90;;;11.80;100.00;101573.88;4987712;28;20630;-64
2022/10/03 01:32:29;;;;;;;2.63;2.40;;;11.50;99.90;;;11.89;100.00;101576.75;4976816;28;21249;-64
2022/10/03 01:36:11;;;;;;;2.93;2.10;;;11.50;99.90;;;11.87;100.00;101580.38;4958797;28;21277;-64
2022/10/03 01:38:46;;;;;;;4.10;2.47;;;11.50;99.90;;;11.85;100.00;101579.66;4950681;28;20705;-66
2022/10/03 01:41:49;;;;;;;3.00;2.43;;;11.50;99.90;;;11.84;100.00;101581.41;4973028;28;20642;-65
2022/10/03 01:44:56;;;;;;;3.97;2.17;;;11.50;99.90;;;11.58;100.00;101585.59;4973528;28;20653;-65
2022/10/03 01:47:36;;;;;;;2.50;2.30;;;11.40;99.90;;;11.53;100.00;101590.28;4976822;28;20669;-64
2022/10/03 01:50:25;;;;;;;2.23;2.13;;;11.40;99.90;;;11.65;100.00;101588.69;4993585;28;21049;-66
2022/10/03 01:53:52;;;;;;;2.63;2.43;;;11.40;99.90;;;11.72;100.00;101597.88;4993686;28;20655;-64
2022/10/03 01:56:57;;;;;;;2.33;2.20;;;11.40;99.90;;;11.77;100.00;101601.06;4956303;28;21114;-64
2022/10/03 02:00:04;;;;;;;2.27;2.10;;;11.40;99.90;;;11.50;100.00;101602.69;4986681;28;20638;-64
2022/10/03 02:02:49;;;;;;;1.97;1.87;;;11.40;99.90;;;11.42;100.00;101605.75;4994724;28;20642;-64
2022/10/03 02:05:59;;;;;;;2.33;2.13;;;11.30;99.90;;;11.34;100.00;101600.16;4977465;28;20635;-65
2022/10/03 02:09:02;;;;;;;2.40;2.20;;;11.30;99.90;;;11.53;100.00;101611.19;4975128;28;20626;-64
2022/10/03 02:12:08;;;;;;;3.10;2.03;;;11.30;99.90;;;11.60;100.00;101603.81;4971492;28;20630;-65
2022/10/03 02:14:57;;;;;;;2.50;2.33;;;11.20;99.90;;;11.63;100.00;101599.25;4993076;28;20709;-64
2022/10/03 02:17:57;;;;;;;2.53;2.30;;;11.30;99.90;;;11.40;100.00;101598.94;4993397;28;20639;-64
2022/10/03 02:20:50;;;;;;;4.03;2.53;;;11.20;99.90;;;11.53;100.00;101602.50;4976353;28;20610;-64
2022/10/03 02:23:32;;;;;;;2.90;2.47;;;11.20;99.90;;;11.40;100.00;101593.72;4971382;28;21202;-65
2022/10/03 02:26:56;;;;;;;3.47;2.40;;;11.20;99.90;;;11.19;100.00;101595.84;4994851;28;20618;-65
2022/10/03 02:29:48;;;;;;;3.13;2.17;;;11.00;99.90;;;11.38;100.00;101593.81;4993270;28;20644;-65
2022/10/03 02:32:40;;;;;;;2.73;2.50;;;11.10;99.90;;;11.50;100.00;101597.44;4958971;28;20658;-65
2022/10/03 02:35:09;;;;;;;3.60;2.27;;;11.10;99.90;;;11.43;100.00;101598.78;4993119;28;20662;-64
2022/10/03 02:38:23;;;;;;;28.73;2.97;;;11.10;99.90;;;11.44;100.00;101595.22;4993568;28;20642;-64
2022/10/03 02:41:31;;;;;;;2.00;1.90;;;11.10;99.90;;;11.31;100.00;101587.28;4957479;28;20648;-65
2022/10/03 02:44:36;;;;;;;3.13;2.53;;;11.10;99.90;;;11.38;100.00;101585.13;4993191;28;20661;-65
2022/10/03 02:47:47;;;;;;;6.20;2.80;;;11.10;99.90;;;11.38;100.00;101585.13;4976852;28;20618;-64
2022/10/03 02:50:41;;;;;;;2.70;2.30;;;11.10;99.90;;;11.28;100.00;101594.47;4952565;29;20624;-64
2022/10/03 02:53:50;;;;;;;4.30;2.60;;;11.00;99.90;;;11.35;100.00;101582.72;4976957;28;20650;-64
2022/10/03 02:56:55;;;;;;;3.77;2.60;;;11.00;99.90;;;11.25;100.00;101592.03;4975738;28;20661;-64
2022/10/03 03:00:19;;;;;;;2.50;2.30;;;10.90;99.90;;;11.28;100.00;101589.25;4978415;28;20681;-65
2022/10/03 03:03:33;;;;;;;2.00;1.90;;;10.90;99.90;;;11.25;100.00;101595.47;4976442;28;20832;-64
2022/10/03 03:06:53;;;;;;;1.80;1.70;;;10.90;99.90;;;11.22;100.00;101595.66;4994454;28;21176;-64
2022/10/03 03:10:10;;;;;;;3.60;2.57;;;10.90;99.90;;;11.15;100.00;101596.13;4974641;28;20623;-65
2022/10/03 03:12:51;;;;;;;3.17;2.30;;;10.90;99.90;;;10.90;100.00;101604.56;4954315;28;21225;-64
2022/10/03 03:16:22;;;;;;;3.33;2.60;;;10.80;99.90;;;10.94;100.00;101601.66;4993240;28;21303;-64
2022/10/03 03:19:42;;;;;;;1.90;1.80;;;10.70;99.90;;;11.05;100.00;101610.66;4992288;28;20712;-65
2022/10/03 03:22:34;;;;;;;2.47;2.27;;;10.80;99.90;;;11.07;100.00;101614.03;4975344;23;21060;-63
2022/10/03 03:25:38;;;;;;;2.40;2.20;;;10.80;99.90;;;11.09;100.00;101617.38;5013775;28;20671;-63
2022/10/03 03:28:45;;;;;;;4.17;2.83;;;10.80;99.90;;;11.06;100.00;101630.59;4994005;28;20625;-64
2022/10/03 03:31:28;;;;;;;3.07;2.80;;;10.70;99.90;;;11.10;100.00;101627.72;4976361;28;20668;-63
2022/10/03 03:34:17;;;;;;;3.30;2.57;;;10.80;99.90;;;11.09;100.00;101625.22;4975769;28;20984;-63
2022/10/03 03:37:04;;;;;;;3.40;2.43;;;10.80;99.90;;;11.06;100.00;101636.69;4996337;28;20720;-63
2022/10/03 03:39:48;;;;;;;3.43;2.60;;;10.70;99.90;;;11.01;100.00;101630.06;5001152;28;21000;-63
2022/10/03 03:43:03;;;;;;;2.80;2.60;;;10.70;99.90;;;10.99;100.00;101626.69;4998241;28;20707;-63
2022/10/03 03:45:32;;;;;;;2.87;2.60;;;10.70;99.90;;;11.01;100.00;101624.81;4961958;28;21208;-63
2022/10/03 03:49:15;;;;;;;3.00;2.67;;;10.70;99.90;;;10.98;100.00;101627.59;5009505;28;20696;-61
2022/10/03 03:52:13;;;;;;;8.07;2.80;;;10.70;99.90;;;11.04;100.00;101635.06;4977182;28;20658;-63
2022/10/03 03:55:31;;;;;;;4.23;3.33;;;10.70;99.90;;;11.03;100.00;101641.25;4994378;28;20688;-63
2022/10/03 03:58:40;;;;;;;3.90;2.77;;;10.70;99.90;;;11.08;100.00;101636.56;4971912;28;21017;-63
2022/10/03 04:01:38;;;;;;;2.30;2.13;;;10.70;99.90;;;11.05;100.00;101642.00;4972908;28;20715;-63
2022/10/03 04:04:37;;;;;;;3.33;2.30;;;10.70;99.90;;;11.04;100.00;101645.53;5023858;28;21192;-63
2022/10/03 04:08:11;;;;;;;2.10;1.90;;;10.70;99.90;;;11.06;100.00;101647.13;5010984;28;20638;-63
2022/10/03 04:10:49;;;;;;;2.07;1.83;;;10.70;99.90;;;11.00;100.00;101649.25;4991978;28;20641;-63
2022/10/03 04:13:23;;;;;;;2.50;2.30;;;10.70;99.90;;;10.91;100.00;101641.00;5011544;28;21045;-64
2022/10/03 04:16:11;;;;;;;2.40;2.20;;;10.60;99.90;;;10.90;100.00;101643.72;4992867;28;20661;-63
2022/10/03 04:19:05;;;;;;;4.43;2.70;;;10.60;99.90;;;10.83;100.00;101656.28;5010528;28;20672;-63
2022/10/03 04:22:11;;;;;;;2.70;2.50;;;10.60;99.90;;;10.88;100.00;101651.63;4990157;28;20630;-64
2022/10/03 04:25:00;;;;;;;2.60;2.40;;;10.50;99.90;;;10.79;100.00;101662.63;4975289;28;20971;-64
2022/10/03 04:27:47;;;;;;;2.30;2.10;;;10.50;99.90;;;10.81;100.00;101654.69;4993726;28;20728;-64
2022/10/03 04:30:50;;;;;;;5.07;2.20;;;10.50;99.90;;;10.86;100.00;101656.09;5010152;28;20641;-63
2022/10/03 04:33:52;;;;;;;2.27;2.17;;;10.50;99.90;;;10.88;100.00;101663.88;5010709;28;20657;-63
2022/10/03 04:36:40;;;;;;;2.07;1.90;;;10.60;99.90;;;10.91;100.00;101669.75;5003688;28;21005;-63
2022/10/03 04:39:20;;;;;;;5.70;2.47;;;10.60;99.90;;;10.88;100.00;101669.91;5009526;28;20699;-63
2022/10/03 04:41:54;;;;;;;2.03;1.87;;;10.60;99.90;;;10.88;100.00;101669.91;4992754;28;21306;-63
2022/10/03 04:44:48;;;;;;;3.87;2.60;;;10.60;99.90;;;10.85;100.00;101659.66;5010562;28;20699;-64
2022/10/03 04:47:26;;;;;;;2.37;2.17;;;10.60;99.90;;;10.79;100.00;101659.16;5010532;28;20628;-63
2022/10/03 04:50:11;;;;;;;3.67;1.90;;;10.50;99.90;;;10.84;100.00;101657.09;4990558;28;20743;-63
2022/10/03 04:53:03;;;;;;;2.90;2.50;;;10.50;99.90;;;10.78;100.00;101662.69;4991133;28;20643;-64
2022/10/03 04:55:41;;;;;;;3.10;2.20;;;10.50;99.90;;;10.79;100.00;101659.16;4981128;28;20658;-63
2022/10/03 04:58:24;;;;;;;4.90;3.10;;;10.50;99.90;;;10.79;100.00;101661.75;4993143;28;20712;-63
2022/10/03 05:01:11;;;;;;;3.00;2.80;;;10.50;99.90;;;10.67;100.00;101662.44;5010470;28;20630;-63
2022/10/03 05:03:56;;;;;;;2.73;2.53;;;10.50;99.90;;;10.63;100.00;101658.31;5007553;28;21054;-63
2022/10/03 05:06:48;;;;;;;3.50;3.07;;;10.40;99.90;;;10.71;100.00;101664.78;4994764;28;21244;-64
2022/10/03 05:09:41;;;;;;;3.30;2.60;;;10.40;99.90;;;10.67;100.00;101668.50;4992956;28;20665;-63
2022/10/03 05:12:44;;;;;;;2.60;2.40;;;10.40;99.90;;;10.68;100.00;101670.19;5010488;28;20638;-63
2022/10/03 05:15:41;;;;;;;2.17;2.07;;;10.30;99.90;;;10.65;100.00;101672.97;5010969;28;20709;-64
2022/10/03 05:18:57;;;;;;;3.20;2.37;;;10.30;99.90;;;10.56;100.00;101677.88;4992391;28;20630;-64
2022/10/03 05:22:19;;;;;;;3.13;2.33;;;10.30;99.90;;;10.54;100.00;101685.75;5003742;28;20693;-61
2022/10/03 05:25:10;;;;;;;2.37;2.17;;;10.20;99.90;;;10.60;100.00;101682.84;4932495;29;20663;-62
2022/10/03 05:28:10;;;;;;;6.97;2.40;;;10.30;99.90;;;10.55;100.00;101692.69;4947550;29;20632;-63
2022/10/03 05:31:07;;;;;;;2.83;2.50;;;10.20;99.90;;;10.64;100.00;101693.94;5009468;28;20650;-63
2022/10/03 05:33:53;;;;;;;2.10;2.00;;;10.30;99.90;;;10.60;100.00;101695.88;4992428;28;20662;-64
2022/10/03 05:36:23;;;;;;;3.77;2.60;;;10.20;99.90;;;10.53;100.00;101694.53;4992517;28;20666;-63
2022/10/03 05:39:27;;;;;;;3.20;2.90;;;10.20;99.90;;;10.56;100.00;101698.75;5009418;28;20688;-64
2022/10/03 05:41:56;;;;;;;3.20;2.90;;;10.20;99.90;;;10.58;100.00;101695.13;5009595;28;20704;-63
2022/10/03 05:44:57;;;;;;;2.10;1.97;;;10.30;99.90;;;10.64;100.00;101702.63;4990685;28;21046;-62
2022/10/03 05:48:09;;;;;;;2.37;2.17;;;10.30;99.90;;;10.72;100.00;101704.78;4990440;28;20793;-63
2022/10/03 05:51:14;;;;;;;2.63;1.97;;;10.30;99.90;;;10.82;100.00;101706.81;4974435;28;20599;-63
2022/10/03 05:54:22;;;;;;;2.80;2.10;;;10.40;99.90;;;10.89;100.00;101710.75;4991607;28;21022;-63
2022/10/03 05:57:06;;;;;;;7.43;1.97;;;10.50;99.90;;;11.13;100.00;101710.31;4999127;28;20709;-63
2022/10/03 06:00:07;;;;;;;2.33;2.17;;;10.60;99.90;;;11.63;98.13;101711.66;5008404;28;20637;-64
2022/10/03 06:03:09;;;;;;;4.00;2.27;;;10.90;99.90;;;12.38;92.57;101716.66;4996879;28;21216;-63
2022/10/03 06:06:26;;;;;;;2.87;2.40;;;11.30;99.90;;;13.22;89.66;101730.47;5009754;28;20603;-64
2022/10/03 06:09:44;;;;;;;4.20;2.40;;;11.80;99.90;;;13.89;84.49;101732.88;5007162;28;21067;-63
2022/10/03 06:12:42;;;;;;;3.60;2.77;;;12.40;99.90;;;14.94;78.49;101738.59;4991875;28;20654;-63
2022/10/03 06:15:42;;;;;;;3.53;2.50;;;13.00;99.90;;;15.77;74.51;101746.34;4981421;28;20637;-64
2022/10/03 06:18:37;;;;;;;2.40;2.23;;;13.60;99.90;;;16.32;72.28;101750.81;5009193;28;20634;-64
2022/10/03 06:21:47;;;;;;;3.57;2.87;;;14.20;99.90;;;16.68;69.43;101750.59;5009612;28;20691;-63
2022/10/03 06:25:10;;;;;;;3.93;2.80;;;14.80;99.90;;;16.88;68.44;101754.25;5010788;28;20602;-63
2022/10/03 06:27:57;;;;;;;4.70;2.87;;;15.20;99.90;;;17.49;67.09;101743.00;5011161;28;20667;-64
2022/10/03 06:31:01;;;;;;;4.07;2.67;;;15.60;99.90;;;18.43;62.62;101746.31;4993241;28;21209;-64
2022/10/03 06:33:34;;;;;;;4.07;2.90;;;16.10;99.90;;;19.15;62.12;101748.72;5011939;28;21174;-64
2022/10/03 06:36:12;;;;;;;4.90;2.97;;;16.70;99.90;;;19.72;59.25;101758.50;5014420;28;20657;-63
2022/10/03 06:39:31;;;;;;;4.47;3.00;;;17.30;99.90;;;20.17;57.83;101759.47;5013110;28;20634;-64
2022/10/03 06:42:33;;;;;;;3.47;2.60;;;17.80;99.90;;;20.74;55.93;101755.75;5010513;28;20641;-64
2022/10/03 06:45:28;;;;;;;4.23;3.27;;;18.30;99.90;;;21.14;54.73;101761.50;4996272;28;20637;-63
2022/10/03 06:48:48;;;;;;;4.63;2.90;;;18.70;99.90;;;21.36;53.34;101758.38;5012400;28;21006;-64
2022/10/03 06:51:39;;;;;;;4.40;3.63;;;19.10;99.90;;;22.15;51.91;101753.81;5007212;28;20630;-63
2022/10/03 06:55:03;;;;;;;4.53;3.57;;;19.60;99.90;;;23.22;49.27;101754.88;4994534;28;20630;-64
2022/10/03 06:58:26;;;;;;;3.47;3.17;;;20.10;99.90;;;24.04;47.06;101761.84;5011518;28;21007;-64
2022/10/03 07:01:30;;;;;;;3.07;2.87;;;20.80;99.90;;;24.37;46.76;101755.41;5013178;28;20628;-64
2022/10/03 07:04:30;;;;;;;3.77;2.93;;;21.20;99.90;;;24.65;45.58;101759.28;4986997;28;20641;-64
2022/10/03 07:07:52;;;;;;;3.90;3.30;;;21.70;99.90;;;25.15;44.48;101764.22;5010491;28;20622;-64
2022/10/03 07:11:08;;;;;;;3.40;3.20;;;22.00;99.90;;;25.68;42.90;101756.13;4969210;28;20623;-63
2022/10/03 07:14:35;;;;;;;4.97;3.07;;;22.50;99.90;;;25.95;42.21;101747.47;5000436;28;20656;-63
2022/10/03 07:17:28;;;;;;;2.80;2.60;;;22.80;99.30;;;26.28;41.68;101742.59;5010149;28;20669;-64
2022/10/03 07:20:25;;;;;;;4.73;3.40;;;23.30;97.70;;;26.50;40.54;101746.19;5012857;28;20671;-64
2022/10/03 07:23:51;;;;;;;3.33;3.07;;;23.70;96.20;;;26.98;40.30;101744.72;5012264;28;20645;-64
2022/10/03 07:26:50;;;;;;;3.33;3.03;;;24.20;95.10;;;27.72;38.69;101746.00;4936355;29;20644;-64
2022/10/03 07:29:59;;;;;;;3.73;3.40;;;24.80;93.00;;;28.43;37.67;101748.31;4965788;28;20617;-64
2022/10/03 07:33:04;;;;;;;7.10;3.60;;;25.30;91.80;;;29.44;34.56;101760.81;5007319;28;20657;-64
2022/10/03 07:40:12;;;;;;;4.37;3.57;;;26.70;85.60;;;30.34;34.36;101771.69;4992459;28;20634;-64
2022/10/03 07:43:01;;;;;;;5.07;3.90;;;27.20;83.10;;;30.97;32.49;101767.28;5003171;28;20658;-65
2022/10/03 07:45:39;;;;;;;8.37;4.10;;;27.90;78.40;;;31.76;31.82;101771.03;5011567;28;20664;-65
2022/10/03 07:49:03;;;;;;;3.60;3.40;;;28.40;76.50;;;33.07;30.14;101784.94;5011835;28;20625;-66
2022/10/03 07:51:59;;;;;;;4.70;3.60;;;29.10;73.70;;;33.85;28.38;101785.53;4993753;28;20607;-64
2022/10/03 07:55:09;;;;;;;4.20;3.80;;;29.70;71.10;;;34.50;27.56;101778.88;4991131;28;21162;-64
2022/10/03 07:57:51;;;;;;;4.03;3.50;;;30.20;67.50;;;35.02;26.85;101775.03;5001833;28;20669;-66
2022/10/03 08:00:34;;;;;;;8.20;4.20;;;30.60;65.20;;;35.55;26.34;101773.78;5012471;28;20636;-65
2022/10/03 08:04:23;;;;;;;3.87;3.40;;;31.10;64.50;;;36.32;25.07;101772.72;4994630;28;20737;-64
2022/10/03 08:07:19;;;;;;;5.47;3.67;;;31.70;61.90;;;36.91;25.29;101776.44;4919614;29;21221;-64
2022/10/03 08:10:14;;;;;;;5.70;4.60;;;32.30;61.10;;;37.35;24.40;101771.69;4930873;29;20697;-66
2022/10/03 08:13:13;;;;;;;4.90;4.30;;;32.50;59.60;;;37.88;23.79;101778.91;4993414;28;20789;-66
2022/10/03 08:16:06;;;;;;;4.40;4.03;;;32.70;59.50;;;38.54;22.86;101780.84;4994230;28;20618;-66
2022/10/03 08:18:41;;;;;;;4.73;3.90;;;33.20;57.70;;;38.93;22.66;101778.53;5010763;28;20641;-64
2022/10/03 08:21:20;;;;;;;5.80;4.57;;;33.60;57.20;;;39.64;22.25;101778.53;4995004;28;20605;-64
2022/10/03 08:24:21;;;;;;;6.60;4.73;;;34.00;56.60;;;40.22;21.28;101788.78;4986598;28;21201;-63
2022/10/03 08:27:25;;;;;;;5.47;4.97;;;34.50;55.20;;;40.53;20.82;101776.63;4992214;28;21230;-63
2022/10/03 08:30:22;;;;;;;5.00;3.80;;;34.90;54.20;;;40.84;20.25;101772.66;4990107;28;20696;-64
2022/10/03 08:32:58;;;;;;;4.53;4.23;;;34.90;53.30;;;41.51;20.14;101781.97;5010314;28;20646;-63
2022/10/03 08:35:56;;;;;;;5.00;4.50;;;35.30;53.30;;;41.92;19.34;101777.72;4992594;28;20614;-63
2022/10/03 08:38:54;;;;;;;4.30;4.00;;;35.50;52.30;;;42.30;19.31;101776.72;4973943;28;21030;-62
2022/10/03 08:42:14;;;;;;;4.43;4.00;;;35.60;51.90;;;42.88;18.38;101770.97;4992799;28;20651;-64
2022/10/03 08:45:23;;;;;;;7.10;4.37;;;35.90;51.20;;;43.97;17.95;101774.00;5006441;28;20633;-65
2022/10/03 08:48:40;;;;;;;3.80;3.60;;;36.70;51.10;;;44.43;17.64;101782.94;5009346;28;21231;-62
2022/10/03 08:51:54;;;;;;;4.50;4.10;;;37.30;49.80;;;44.64;17.19;101773.13;5011913;28;20621;-63
2022/10/03 08:55:22;;;;;;;4.90;4.50;;;37.60;48.60;;;45.10;16.83;101768.16;5010426;28;20671;-64
2022/10/03 08:58:30;;;;;;;4.47;4.07;;;38.10;48.20;;;45.44;16.00;101766.75;5001806;28;20672;-63
2022/10/03 09:01:34;;;;;;;3.90;3.60;;;38.00;46.90;;;45.07;16.45;101760.50;4965560;28;20625;-64
2022/10/03 09:04:45;;;;;;;3.60;3.40;;;38.00;47.40;;;45.66;15.91;101769.47;4972874;28;20721;-64
2022/10/03 09:07:36;;;;;;;4.00;3.67;;;38.50;46.10;;;46.15;15.58;101769.16;5009941;28;20656;-64
2022/10/03 09:10:40;;;;;;;3.77;3.47;;;38.90;46.20;;;46.71;15.44;101766.31;5008589;28;20704;-64
2022/10/03 09:13:46;;;;;;;3.60;3.30;;;39.30;45.70;;;46.99;15.36;101764.03;5008712;28;20661;-64
2022/10/03 09:17:05;;;;;;;5.40;3.97;;;39.60;45.90;;;46.99;15.26;101757.66;5010739;28;21077;-63
2022/10/03 09:20:23;;;;;;;3.37;3.10;;;40.00;44.70;;;47.20;15.13;101764.16;4979081;28;20629;-63
2022/10/03 09:23:25;;;;;;;4.57;3.47;;;40.30;43.90;;;45.77;16.22;101765.31;4993595;28;20999;-63
2022/10/03 09:26:54;;;;;;;3.63;3.30;;;39.70;44.00;;;46.74;14.93;101757.41;5011495;28;20693;-64
2022/10/03 09:29:49;;;;;;;3.70;3.40;;;39.70;44.50;;;47.77;14.53;101764.66;4992783;28;20613;-63
2022/10/03 09:32:41;;;;;;;3.53;3.27;;;39.90;43.70;;;48.15;14.42;101771.78;5010513;28;20836;-64
2022/10/03 09:35:34;;;;;;;3.43;3.03;;;40.30;43.70;;;49.06;14.10;101776.41;5011469;28;20626;-63
2022/10/03 09:38:57;;;;;;;3.33;2.90;;;41.00;43.40;;;49.71;13.54;101776.31;4991026;28;20657;-64
2022/10/03 09:41:30;;;;;;;3.10;2.90;;;41.40;42.50;;;49.54;13.37;101776.53;4998466;28;20650;-63
2022/10/03 09:44:36;;;;;;;3.17;2.97;;;41.70;41.50;;;49.53;13.03;101765.78;4988672;28;20692;-64
2022/10/03 09:47:28;;;;;;;3.70;2.97;;;41.50;41.50;;;49.51;12.92;101766.16;4992421;28;20637;-63
2022/10/03 09:50:18;;;;;;;2.70;2.50;;;41.70;41.60;;;49.60;12.91;101768.81;5009741;28;20641;-64
2022/10/03 09:53:03;;;;;;;3.27;2.90;;;41.90;41.40;;;49.67;13.12;101767.06;4991541;28;20736;-64
2022/10/03 09:56:34;;;;;;;4.10;2.60;;;41.90;41.30;;;49.77;13.01;101768.59;5009012;28;20692;-65
2022/10/03 09:59:33;;;;;;;3.60;2.97;;;42.10;41.30;;;45.71;14.99;101764.63;4992824;28;20992;-64
2022/10/03 10:02:21;;;;;;;4.47;3.07;;;40.60;41.10;;;;;;4992479;28;20692;-64
2022/10/03 10:04:48;;;;;;;3.07;2.80;;;36.60;42.30;;;;;;5008695;28;20712;-63
2022/10/03 10:07:21;;;;;;;2.70;2.50;;;33.20;46.30;;;;;;5009321;28;20713;-62
2022/10/03 10:10:22;;;;;;;2.70;2.50;;;30.70;49.80;;;28.71;nan;101735.63;4983572;28;20626;-66
2022/10/03 10:13:29;;;;;;;3.53;2.90;;;28.70;51.20;;;27.27;nan;101726.66;5012188;28;21082;-64
2022/10/03 10:16:28;;;;;;;4.07;2.70;;;26.90;54.40;;;26.26;nan;101733.13;5011086;28;20626;-65
2022/10/03 10:19:30;;;;;;;5.33;2.50;;;25.40;56.50;;;25.44;nan;101729.59;5012951;28;20641;-63
2022/10/03 10:21:56;;;;;;;3.87;2.70;;;24.30;58.80;;;25.10;nan;101729.19;5012832;28;20653;-64
2022/10/03 10:24:58;;;;;;;3.00;2.70;;;23.80;61.00;;;25.31;nan;101732.00;5013744;28;20637;-65
2022/10/03 10:28:21;;;;;;;3.37;2.30;;;23.60;62.00;;;25.79;nan;101725.44;5009623;28;20625;-64
2022/10/03 10:31:40;;;;;;;3.80;2.53;;;23.70;61.80;;;25.45;nan;101717.88;4966686;28;20692;-64
2022/10/03 10:34:35;;;;;;;4.73;2.27;;;23.50;61.50;;;24.75;nan;101722.56;4992862;28;20626;-65
2022/10/03 10:37:33;;;;;;;3.73;2.10;;;23.20;61.90;;;24.05;nan;101723.53;5012001;28;20719;-64
2022/10/03 10:40:39;;;;;;;4.97;2.80;;;22.70;62.70;;;23.89;nan;101719.88;4998040;28;20641;-64
2022/10/03 10:43:40;;;;;;;3.07;2.30;;;22.40;64.00;;;23.79;nan;101724.56;5011802;28;20660;-64
2022/10/03 10:46:22;;;;;;;5.17;2.33;;;22.20;65.00;;;24.11;nan;101731.66;5012971;28;21289;-64
2022/10/03 10:49:28;;;;;;;3.00;2.13;;;22.20;64.80;;;24.71;nan;101728.41;5012409;28;20641;-65
2022/10/03 10:52:33;;;;;;;4.37;2.23;;;22.50;64.70;;;24.45;nan;101728.69;5010372;28;20675;-65
2022/10/03 10:55:44;;;;;;;2.00;1.60;;;22.50;63.70;;;23.74;nan;101734.91;5007624;28;20629;-65
2022/10/03 10:59:08;;;;;;;3.23;1.70;;;22.20;64.10;;;23.42;nan;101729.63;4995731;28;20669;-64
2022/10/03 11:02:27;;;;;;;1.70;1.30;;;22.00;64.50;;;22.91;nan;101729.88;5006911;28;20661;-65
2022/10/03 11:05:33;;;;;;;3.23;1.90;;;21.70;64.80;;;22.41;nan;101732.50;5008358;28;20638;-64
2022/10/03 11:08:44;;;;;;;2.13;1.93;;;21.30;65.70;;;21.79;nan;101727.50;5019179;28;20726;-65
2022/10/03 11:11:52;;;;;;;5.97;2.00;;;20.90;68.10;;;21.60;nan;101723.22;5004205;28;21084;-65
2022/10/03 11:14:53;;;;;;;8.43;1.83;;;20.60;69.70;;;21.26;nan;101727.59;5013000;28;20621;-65
2022/10/03 11:17:57;;;;;;;4.00;1.90;;;20.30;70.70;;;20.84;nan;101725.53;5012802;28;20681;-64
2022/10/03 11:21:18;;;;;;;4.20;1.93;;;20.00;70.20;;;20.93;nan;101721.13;5010566;28;20639;-64
2022/10/03 11:24:14;;;;;;;2.43;1.57;;;19.80;72.40;;;21.13;nan;101722.66;5013257;28;20638;-64
2022/10/03 11:27:30;;;;;;;1.80;1.70;;;19.90;71.50;;;21.35;nan;101722.22;5013550;28;20665;-64
2022/10/03 11:30:22;;;;;;;1.20;1.10;;;19.90;72.00;;;21.49;nan;101712.84;5001392;28;20642;-65
2022/10/03 11:33:40;;;;;;;2.03;1.70;;;20.00;70.90;;;21.70;nan;101721.28;5013258;28;20688;-65
2022/10/03 11:36:58;;;;;;;3.13;1.67;;;20.00;71.40;;;21.40;nan;101716.44;4992920;28;20641;-65
2022/10/03 11:40:03;;;;;;;1.73;1.20;;;20.00;72.60;;;21.56;nan;101714.75;4963418;28;20637;-64
2022/10/03 11:43:13;;;;;;;1.50;1.40;;;20.10;73.30;;;21.59;nan;101703.78;5011945;28;20707;-64
2022/10/03 11:45:53;;;;;;;2.93;2.03;;;20.10;71.60;;;21.39;nan;101706.81;5000971;28;20641;-65
2022/10/03 11:48:39;;;;;;;3.13;1.87;;;20.00;72.90;;;21.09;nan;101715.16;4995450;28;20626;-64
2022/10/03 11:51:37;;;;;;;2.10;1.77;;;19.90;74.70;;;20.50;nan;101711.22;4995782;28;20614;-64
2022/10/03 11:54:26;;;;;;;1.73;1.60;;;19.50;75.50;;;20.49;nan;101717.50;5000198;28;20686;-65
2022/10/03 11:57:24;;;;;;;1.93;1.37;;;19.50;74.90;;;20.62;nan;101717.13;4996367;28;20665;-64
2022/10/03 12:00:13;;;;;;;4.57;2.03;;;19.30;75.60;;;20.66;nan;101711.38;5012392;28;20679;-64
2022/10/03 12:03:01;;;;;;;2.33;1.90;;;19.30;77.50;;;20.68;nan;101709.44;5011461;28;20646;-64
2022/10/03 12:05:48;;;;;;;1.67;1.50;;;19.30;78.70;;;20.52;nan;101709.25;5012574;28;20630;-64
2022/10/03 12:08:54;;;;;;;1.80;1.70;;;19.40;78.30;;;20.43;nan;101701.34;5012517;28;20680;-64
2022/10/03 12:11:41;;;;;;;2.50;1.67;;;19.20;79.30;;;20.41;nan;101703.31;4997676;28;20630;-64
2022/10/03 12:14:08;;;;;;;2.80;1.70;;;19.20;79.40;;;20.47;nan;101708.03;5012611;28;20640;-64
2022/10/03 12:17:02;;;;;;;1.87;1.63;;;19.20;80.80;;;20.79;nan;101708.38;5012394;28;20640;-64
2022/10/03 12:20:09;;;;;;;3.43;1.60;;;19.30;81.60;;;21.03;nan;101705.16;5000984;28;21069;-64
2022/10/03 12:22:48;;;;;;;1.90;1.43;;;19.40;80.70;;;21.12;nan;101683.88;4931795;29;21065;-64
2022/10/03 12:25:18;;;;;;;3.23;1.10;;;19.60;80.70;;;20.86;nan;101693.53;4961412;28;20633;-65
2022/10/03 12:28:10;;;;;;;1.77;1.40;;;19.50;79.80;;;20.76;nan;101695.44;5012367;28;20630;-65
2022/10/03 12:30:54;;;;;;;3.33;1.60;;;19.50;80.90;;;20.86;nan;101693.53;4984239;28;21298;-65
2022/10/03 12:33:49;;;;;;;2.53;1.40;;;19.40;81.20;;;20.69;nan;101687.25;4994990;28;20658;-66